sensor_id;sensor_type;location;lat;lon;timestamp;P1;durP1;ratioP1;P2;durP2;ratioP2
34497;SDS011;20744;50.938;7.286;2022-10-04T00:00:22;12.50;;;6.90;;
34497;SDS011;20744;50.938;7.286;2022-10-04T00:02:50;12.98;;;6.80;;
34497;SDS011;20744;50.938;7.286;2022-10-04T00:05:19;13.15;;;6.88;;
34497;SDS011;20744;50.938;7.286;2022-10-04T00:07:49;14.32;;;7.20;;
34497;SDS011;20744;50.938;7.286;2022-10-04T00:10:18;19.27;;;6.95;;
34497;SDS011;20744;50.938;7.286;2022-10-04T00:12:47;13.13;;;6.78;;
34497;SDS011;20744;50.938;7.286;2022-10-04T00:15:18;10.82;;;6.32;;
34497;SDS011;20744;50.938;7.286;2022-10-04T00:17:58;11.90;;;6.45;;
34497;SDS011;20744;50.938;7.286;2022-10-04T00:20:54;9.90;;;6.15;;
34497;SDS011;20744;50.938;7.286;2022-10-04T00:23:26;16.77;;;6.97;;
34497;SDS011;20744;50.938;7.286;2022-10-04T00:25:55;12.13;;;6.45;;
34497;SDS011;20744;50.938;7.286;2022-10-04T00:28:27;14.70;;;6.47;;
34497;SDS011;20744;50.938;7.286;2022-10-04T00:31:10;14.40;;;6.72;;
34497;SDS011;20744;50.938;7.286;2022-10-04T00:33:38;10.52;;;6.53;;
34497;SDS011;20744;50.938;7.286;2022-10-04T00:39:02;12.10;;;5.78;;
34497;SDS011;20744;50.938;7.286;2022-10-04T00:41:32;10.63;;;6.47;;
34497;SDS011;20744;50.938;7.286;2022-10-04T00:44:01;13.88;;;6.80;;
34497;SDS011;20744;50.938;7.286;2022-10-04T00:46:32;12.05;;;7.10;;
34497;SDS011;20744;50.938;7.286;2022-10-04T00:49:00;15.25;;;6.80;;
34497;SDS011;20744;50.938;7.286;2022-10-04T00:51:29;18.58;;;6.57;;
34497;SDS011;20744;50.938;7.286;2022-10-04T00:54:00;13.77;;;6.78;;
34497;SDS011;20744;50.938;7.286;2022-10-04T00:56:30;18.05;;;7.20;;
34497;SDS011;20744;50.938;7.286;2022-10-04T01:01:50;15.70;;;7.13;;
34497;SDS011;20744;50.938;7.286;2022-10-04T01:04:23;14.55;;;7.07;;
34497;SDS011;20744;50.938;7.286;2022-10-04T01:06:52;12.95;;;7.07;;
34497;SDS011;20744;50.938;7.286;2022-10-04T01:09:19;11.68;;;6.85;;
34497;SDS011;20744;50.938;7.286;2022-10-04T01:11:49;10.50;;;7.10;;
34497;SDS011;20744;50.938;7.286;2022-10-04T01:16:51;12.45;;;6.95;;
34497;SDS011;20744;50.938;7.286;2022-10-04T01:19:23;12.38;;;6.90;;
34497;SDS011;20744;50.938;7.286;2022-10-04T01:21:57;12.20;;;6.78;;
34497;SDS011;20744;50.938;7.286;2022-10-04T01:24:26;10.65;;;6.80;;
34497;SDS011;20744;50.938;7.286;2022-10-04T01:26:59;10.07;;;6.93;;
34497;SDS011;20744;50.938;7.286;2022-10-04T01:29:27;14.90;;;6.63;;
34497;SDS011;20744;50.938;7.286;2022-10-04T01:31:55;11.45;;;6.15;;
34497;SDS011;20744;50.938;7.286;2022-10-04T01:34:23;9.48;;;6.65;;
34497;SDS011;20744;50.938;7.286;2022-10-04T01:36:51;12.43;;;6.53;;
34497;SDS011;20744;50.938;7.286;2022-10-04T01:39:20;11.93;;;6.70;;
34497;SDS011;20744;50.938;7.286;2022-10-04T01:41:51;12.52;;;7.15;;
34497;SDS011;20744;50.938;7.286;2022-10-04T01:44:22;11.57;;;6.78;;
34497;SDS011;20744;50.938;7.286;2022-10-04T01:46:50;10.70;;;6.60;;
34497;SDS011;20744;50.938;7.286;2022-10-04T01:49:19;16.00;;;6.45;;
34497;SDS011;20744;50.938;7.286;2022-10-04T01:51:51;11.48;;;6.43;;
34497;SDS011;20744;50.938;7.286;2022-10-04T01:54:19;10.13;;;6.10;;
34497;SDS011;20744;50.938;7.286;2022-10-04T01:56:51;10.60;;;6.13;;
34497;SDS011;20744;50.938;7.286;2022-10-04T01:59:20;10.77;;;6.88;;
34497;SDS011;20744;50.938;7.286;2022-10-04T02:01:49;14.07;;;7.10;;
34497;SDS011;20744;50.938;7.286;2022-10-04T02:04:18;14.13;;;7.10;;
34497;SDS011;20744;50.938;7.286;2022-10-04T02:06:47;17.50;;;6.53;;
34497;SDS011;20744;50.938;7.286;2022-10-04T02:09:18;10.40;;;6.32;;
34497;SDS011;20744;50.938;7.286;2022-10-04T02:11:47;12.70;;;6.18;;
34497;SDS011;20744;50.938;7.286;2022-10-04T02:14:19;14.52;;;6.75;;
34497;SDS011;20744;50.938;7.286;2022-10-04T02:16:48;12.13;;;6.80;;
34497;SDS011;20744;50.938;7.286;2022-10-04T02:19:16;14.23;;;6.65;;
34497;SDS011;20744;50.938;7.286;2022-10-04T02:21:44;9.05;;;6.28;;
34497;SDS011;20744;50.938;7.286;2022-10-04T02:24:12;10.98;;;6.43;;
34497;SDS011;20744;50.938;7.286;2022-10-04T02:26:39;16.58;;;6.63;;
34497;SDS011;20744;50.938;7.286;2022-10-04T02:29:07;11.60;;;6.53;;
34497;SDS011;20744;50.938;7.286;2022-10-04T02:31:37;16.08;;;6.65;;
34497;SDS011;20744;50.938;7.286;2022-10-04T02:34:23;11.90;;;6.10;;
34497;SDS011;20744;50.938;7.286;2022-10-04T02:36:50;10.73;;;6.82;;
34497;SDS011;20744;50.938;7.286;2022-10-04T02:39:19;9.77;;;6.20;;
34497;SDS011;20744;50.938;7.286;2022-10-04T02:41:49;10.55;;;6.40;;
34497;SDS011;20744;50.938;7.286;2022-10-04T02:44:19;11.02;;;6.40;;
34497;SDS011;20744;50.938;7.286;2022-10-04T02:46:49;15.68;;;7.00;;
34497;SDS011;20744;50.938;7.286;2022-10-04T02:49:21;10.70;;;6.53;;
34497;SDS011;20744;50.938;7.286;2022-10-04T02:51:51;11.30;;;6.30;;
34497;SDS011;20744;50.938;7.286;2022-10-04T02:54:21;14.05;;;6.25;;
34497;SDS011;20744;50.938;7.286;2022-10-04T02:56:52;10.55;;;5.60;;
34497;SDS011;20744;50.938;7.286;2022-10-04T02:59:20;12.30;;;5.75;;
34497;SDS011;20744;50.938;7.286;2022-10-04T03:01:50;6.88;;;5.90;;
34497;SDS011;20744;50.938;7.286;2022-10-04T03:04:18;11.63;;;5.57;;
34497;SDS011;20744;50.938;7.286;2022-10-04T03:06:47;12.07;;;5.80;;
34497;SDS011;20744;50.938;7.286;2022-10-04T03:09:15;13.00;;;6.10;;
34497;SDS011;20744;50.938;7.286;2022-10-04T03:11:43;13.60;;;5.90;;
34497;SDS011;20744;50.938;7.286;2022-10-04T03:14:13;10.80;;;5.97;;
34497;SDS011;20744;50.938;7.286;2022-10-04T03:16:41;10.13;;;6.57;;
34497;SDS011;20744;50.938;7.286;2022-10-04T03:19:10;14.90;;;5.78;;
34497;SDS011;20744;50.938;7.286;2022-10-04T03:21:39;12.57;;;6.45;;
34497;SDS011;20744;50.938;7.286;2022-10-04T03:24:09;14.32;;;6.05;;
34497;SDS011;20744;50.938;7.286;2022-10-04T03:26:41;13.23;;;6.47;;
34497;SDS011;20744;50.938;7.286;2022-10-04T03:29:10;11.27;;;6.38;;
34497;SDS011;20744;50.938;7.286;2022-10-04T03:31:39;14.65;;;6.85;;
34497;SDS011;20744;50.938;7.286;2022-10-04T03:34:12;11.73;;;6.70;;
34497;SDS011;20744;50.938;7.286;2022-10-04T03:36:40;12.73;;;6.55;;
34497;SDS011;20744;50.938;7.286;2022-10-04T03:39:09;15.20;;;6.63;;
34497;SDS011;20744;50.938;7.286;2022-10-04T03:41:37;12.63;;;6.55;;
34497;SDS011;20744;50.938;7.286;2022-10-04T03:44:06;13.73;;;6.40;;
34497;SDS011;20744;50.938;7.286;2022-10-04T03:46:33;12.70;;;6.88;;
34497;SDS011;20744;50.938;7.286;2022-10-04T03:49:01;12.25;;;7.07;;
34497;SDS011;20744;50.938;7.286;2022-10-04T03:51:31;13.00;;;6.82;;
34497;SDS011;20744;50.938;7.286;2022-10-04T03:53:58;12.55;;;7.38;;
34497;SDS011;20744;50.938;7.286;2022-10-04T03:56:27;17.08;;;7.38;;
34497;SDS011;20744;50.938;7.286;2022-10-04T03:58:55;13.23;;;7.30;;
34497;SDS011;20744;50.938;7.286;2022-10-04T04:01:29;14.80;;;7.18;;
34497;SDS011;20744;50.938;7.286;2022-10-04T04:04:00;19.00;;;7.93;;
34497;SDS011;20744;50.938;7.286;2022-10-04T04:06:32;12.05;;;7.15;;
34497;SDS011;20744;50.938;7.286;2022-10-04T04:09:03;15.80;;;6.70;;
34497;SDS011;20744;50.938;7.286;2022-10-04T04:11:31;11.95;;;6.82;;
34497;SDS011;20744;50.938;7.286;2022-10-04T04:14:00;16.73;;;8.00;;
34497;SDS011;20744;50.938;7.286;2022-10-04T04:16:29;11.07;;;7.32;;
34497;SDS011;20744;50.938;7.286;2022-10-04T04:18:58;17.45;;;6.93;;
34497;SDS011;20744;50.938;7.286;2022-10-04T04:21:26;12.32;;;7.20;;
34497;SDS011;20744;50.938;7.286;2022-10-04T04:23:55;12.45;;;7.38;;
34497;SDS011;20744;50.938;7.286;2022-10-04T04:26:26;13.02;;;7.25;;
34497;SDS011;20744;50.938;7.286;2022-10-04T04:28:55;16.70;;;9.43;;
34497;SDS011;20744;50.938;7.286;2022-10-04T04:31:24;19.58;;;10.02;;
34497;SDS011;20744;50.938;7.286;2022-10-04T04:33:54;17.65;;;10.23;;
34497;SDS011;20744;50.938;7.286;2022-10-04T04:36:25;21.85;;;11.68;;
34497;SDS011;20744;50.938;7.286;2022-10-04T04:38:52;19.63;;;10.80;;
34497;SDS011;20744;50.938;7.286;2022-10-04T04:41:39;22.17;;;8.70;;
34497;SDS011;20744;50.938;7.286;2022-10-04T04:44:12;15.05;;;7.97;;
34497;SDS011;20744;50.938;7.286;2022-10-04T04:46:42;12.32;;;7.18;;
34497;SDS011;20744;50.938;7.286;2022-10-04T04:49:09;11.77;;;7.40;;
34497;SDS011;20744;50.938;7.286;2022-10-04T04:51:37;12.13;;;7.25;;
34497;SDS011;20744;50.938;7.286;2022-10-04T04:54:05;14.07;;;7.40;;
34497;SDS011;20744;50.938;7.286;2022-10-04T04:56:32;12.73;;;6.70;;
34497;SDS011;20744;50.938;7.286;2022-10-04T04:59:02;11.35;;;6.85;;
34497;SDS011;20744;50.938;7.286;2022-10-04T05:01:31;10.02;;;6.90;;
34497;SDS011;20744;50.938;7.286;2022-10-04T05:04:00;14.05;;;6.72;;
34497;SDS011;20744;50.938;7.286;2022-10-04T05:06:29;19.38;;;6.70;;
34497;SDS011;20744;50.938;7.286;2022-10-04T05:08:56;17.00;;;7.15;;
34497;SDS011;20744;50.938;7.286;2022-10-04T05:11:24;15.63;;;7.15;;
34497;SDS011;20744;50.938;7.286;2022-10-04T05:13:54;15.77;;;6.85;;
34497;SDS011;20744;50.938;7.286;2022-10-04T05:16:26;13.27;;;6.85;;
34497;SDS011;20744;50.938;7.286;2022-10-04T05:18:57;11.02;;;6.70;;
34497;SDS011;20744;50.938;7.286;2022-10-04T05:21:26;11.15;;;6.35;;
34497;SDS011;20744;50.938;7.286;2022-10-04T05:23:54;9.23;;;6.03;;
34497;SDS011;20744;50.938;7.286;2022-10-04T05:26:23;11.82;;;6.28;;
34497;SDS011;20744;50.938;7.286;2022-10-04T05:28:51;13.50;;;6.88;;
34497;SDS011;20744;50.938;7.286;2022-10-04T05:31:33;11.55;;;6.60;;
34497;SDS011;20744;50.938;7.286;2022-10-04T05:34:05;11.07;;;6.70;;
34497;SDS011;20744;50.938;7.286;2022-10-04T05:36:46;12.73;;;7.25;;
34497;SDS011;20744;50.938;7.286;2022-10-04T05:39:18;15.35;;;7.55;;
34497;SDS011;20744;50.938;7.286;2022-10-04T05:41:50;10.75;;;7.22;;
34497;SDS011;20744;50.938;7.286;2022-10-04T05:44:22;12.68;;;7.30;;
34497;SDS011;20744;50.938;7.286;2022-10-04T05:46:52;14.13;;;7.00;;
34497;SDS011;20744;50.938;7.286;2022-10-04T05:49:20;10.38;;;6.40;;
34497;SDS011;20744;50.938;7.286;2022-10-04T05:51:49;9.20;;;6.70;;
34497;SDS011;20744;50.938;7.286;2022-10-04T05:54:18;11.88;;;6.30;;
34497;SDS011;20744;50.938;7.286;2022-10-04T05:59:35;16.27;;;6.95;;
34497;SDS011;20744;50.938;7.286;2022-10-04T06:02:09;12.77;;;7.03;;
34497;SDS011;20744;50.938;7.286;2022-10-04T06:04:42;18.42;;;7.60;;
34497;SDS011;20744;50.938;7.286;2022-10-04T06:07:14;12.57;;;6.82;;
34497;SDS011;20744;50.938;7.286;2022-10-04T06:09:46;11.25;;;6.65;;
34497;SDS011;20744;50.938;7.286;2022-10-04T06:12:16;13.38;;;6.70;;
34497;SDS011;20744;50.938;7.286;2022-10-04T06:15:03;11.80;;;6.95;;
34497;SDS011;20744;50.938;7.286;2022-10-04T06:17:40;9.50;;;6.75;;
34497;SDS011;20744;50.938;7.286;2022-10-04T06:20:22;10.73;;;6.60;;
34497;SDS011;20744;50.938;7.286;2022-10-04T06:22:55;12.73;;;7.22;;
34497;SDS011;20744;50.938;7.286;2022-10-04T06:25:24;14.80;;;8.25;;
34497;SDS011;20744;50.938;7.286;2022-10-04T06:27:53;13.57;;;8.02;;
34497;SDS011;20744;50.938;7.286;2022-10-04T06:30:22;15.02;;;8.15;;
34497;SDS011;20744;50.938;7.286;2022-10-04T06:35:53;16.10;;;7.57;;
34497;SDS011;20744;50.938;7.286;2022-10-04T06:38:35;11.50;;;7.40;;
34497;SDS011;20744;50.938;7.286;2022-10-04T06:44:08;31.10;;;8.30;;
34497;SDS011;20744;50.938;7.286;2022-10-04T06:46:39;17.95;;;7.63;;
34497;SDS011;20744;50.938;7.286;2022-10-04T06:52:03;17.25;;;8.05;;
34497;SDS011;20744;50.938;7.286;2022-10-04T06:54:41;17.33;;;8.60;;
34497;SDS011;20744;50.938;7.286;2022-10-04T06:57:22;16.02;;;8.95;;
34497;SDS011;20744;50.938;7.286;2022-10-04T06:59:54;20.52;;;11.45;;
34497;SDS011;20744;50.938;7.286;2022-10-04T07:04:54;17.70;;;9.07;;
34497;SDS011;20744;50.938;7.286;2022-10-04T07:07:30;15.70;;;9.02;;
34497;SDS011;20744;50.938;7.286;2022-10-04T07:10:07;16.25;;;8.65;;
34497;SDS011;20744;50.938;7.286;2022-10-04T07:12:42;13.35;;;8.20;;
34497;SDS011;20744;50.938;7.286;2022-10-04T07:15:14;14.65;;;7.75;;
34497;SDS011;20744;50.938;7.286;2022-10-04T07:17:43;15.32;;;7.88;;
34497;SDS011;20744;50.938;7.286;2022-10-04T07:20:15;13.93;;;7.97;;
34497;SDS011;20744;50.938;7.286;2022-10-04T07:22:45;11.30;;;7.15;;
34497;SDS011;20744;50.938;7.286;2022-10-04T07:25:17;13.88;;;7.03;;
34497;SDS011;20744;50.938;7.286;2022-10-04T07:27:48;15.23;;;7.40;;
34497;SDS011;20744;50.938;7.286;2022-10-04T07:30:39;13.57;;;6.90;;
34497;SDS011;20744;50.938;7.286;2022-10-04T07:33:06;13.90;;;6.95;;
34497;SDS011;20744;50.938;7.286;2022-10-04T07:35:35;11.73;;;7.32;;
34497;SDS011;20744;50.938;7.286;2022-10-04T07:38:07;15.30;;;7.18;;
34497;SDS011;20744;50.938;7.286;2022-10-04T07:40:37;15.38;;;7.45;;
34497;SDS011;20744;50.938;7.286;2022-10-04T07:43:06;18.77;;;7.38;;
34497;SDS011;20744;50.938;7.286;2022-10-04T07:45:36;12.38;;;6.93;;
34497;SDS011;20744;50.938;7.286;2022-10-04T07:48:09;15.25;;;7.20;;
34497;SDS011;20744;50.938;7.286;2022-10-04T07:50:39;16.38;;;7.63;;
34497;SDS011;20744;50.938;7.286;2022-10-04T07:53:08;13.70;;;7.40;;
34497;SDS011;20744;50.938;7.286;2022-10-04T07:55:41;11.20;;;6.85;;
34497;SDS011;20744;50.938;7.286;2022-10-04T07:58:14;13.65;;;7.20;;
34497;SDS011;20744;50.938;7.286;2022-10-04T08:00:47;17.05;;;6.70;;
34497;SDS011;20744;50.938;7.286;2022-10-04T08:03:21;13.85;;;6.18;;
34497;SDS011;20744;50.938;7.286;2022-10-04T08:05:53;10.68;;;5.65;;
34497;SDS011;20744;50.938;7.286;2022-10-04T08:08:30;15.15;;;5.88;;
34497;SDS011;20744;50.938;7.286;2022-10-04T08:11:10;12.75;;;5.50;;
34497;SDS011;20744;50.938;7.286;2022-10-04T08:13:44;11.45;;;5.60;;
34497;SDS011;20744;50.938;7.286;2022-10-04T08:16:18;13.07;;;5.13;;
34497;SDS011;20744;50.938;7.286;2022-10-04T08:18:50;10.05;;;4.97;;
34497;SDS011;20744;50.938;7.286;2022-10-04T08:21:25;12.10;;;5.43;;
34497;SDS011;20744;50.938;7.286;2022-10-04T08:24:01;11.63;;;5.55;;
34497;SDS011;20744;50.938;7.286;2022-10-04T08:26:36;8.38;;;5.10;;
34497;SDS011;20744;50.938;7.286;2022-10-04T08:29:10;13.85;;;5.68;;
34497;SDS011;20744;50.938;7.286;2022-10-04T08:32:01;7.43;;;5.15;;
34497;SDS011;20744;50.938;7.286;2022-10-04T08:34:41;12.85;;;4.95;;
34497;SDS011;20744;50.938;7.286;2022-10-04T08:37:14;10.45;;;5.03;;
34497;SDS011;20744;50.938;7.286;2022-10-04T08:39:50;12.55;;;5.57;;
34497;SDS011;20744;50.938;7.286;2022-10-04T08:42:27;12.05;;;4.90;;
34497;SDS011;20744;50.938;7.286;2022-10-04T08:45:19;10.05;;;4.95;;
34497;SDS011;20744;50.938;7.286;2022-10-04T08:48:02;9.65;;;4.85;;
34497;SDS011;20744;50.938;7.286;2022-10-04T08:50:46;14.10;;;5.03;;
34497;SDS011;20744;50.938;7.286;2022-10-04T08:56:14;9.25;;;4.57;;
34497;SDS011;20744;50.938;7.286;2022-10-04T08:58:58;7.13;;;4.10;;
34497;SDS011;20744;50.938;7.286;2022-10-04T09:01:44;7.55;;;4.50;;
34497;SDS011;20744;50.938;7.286;2022-10-04T09:09:31;11.88;;;5.30;;
34497;SDS011;20744;50.938;7.286;2022-10-04T09:14:52;13.07;;;4.72;;
34497;SDS011;20744;50.938;7.286;2022-10-04T09:17:26;10.68;;;4.80;;
34497;SDS011;20744;50.938;7.286;2022-10-04T09:20:00;7.53;;;4.35;;
34497;SDS011;20744;50.938;7.286;2022-10-04T09:22:36;11.77;;;4.47;;
34497;SDS011;20744;50.938;7.286;2022-10-04T09:25:16;8.02;;;4.40;;
34497;SDS011;20744;50.938;7.286;2022-10-04T09:27:49;9.68;;;3.97;;
34497;SDS011;20744;50.938;7.286;2022-10-04T09:30:20;11.55;;;4.07;;
34497;SDS011;20744;50.938;7.286;2022-10-04T09:32:53;7.72;;;3.97;;
34497;SDS011;20744;50.938;7.286;2022-10-04T09:49:32;10.15;;;3.90;;
34497;SDS011;20744;50.938;7.286;2022-10-04T09:54:56;10.18;;;3.03;;
34497;SDS011;20744;50.938;7.286;2022-10-04T09:57:26;9.75;;;3.80;;
34497;SDS011;20744;50.938;7.286;2022-10-04T10:02:39;10.70;;;3.50;;
34497;SDS011;20744;50.938;7.286;2022-10-04T10:05:22;8.07;;;3.00;;
34497;SDS011;20744;50.938;7.286;2022-10-04T10:07:56;7.00;;;3.05;;
34497;SDS011;20744;50.938;7.286;2022-10-04T10:10:28;6.95;;;2.92;;
34497;SDS011;20744;50.938;7.286;2022-10-04T10:13:21;10.43;;;3.42;;
34497;SDS011;20744;50.938;7.286;2022-10-04T10:16:09;11.60;;;3.45;;
34497;SDS011;20744;50.938;7.286;2022-10-04T10:18:43;9.90;;;2.95;;
34497;SDS011;20744;50.938;7.286;2022-10-04T10:21:21;12.75;;;3.15;;
34497;SDS011;20744;50.938;7.286;2022-10-04T10:24:04;12.60;;;3.33;;
34497;SDS011;20744;50.938;7.286;2022-10-04T10:26:44;8.52;;;3.10;;
34497;SDS011;20744;50.938;7.286;2022-10-04T10:32:07;9.43;;;3.28;;
34497;SDS011;20744;50.938;7.286;2022-10-04T10:34:53;10.25;;;3.05;;
34497;SDS011;20744;50.938;7.286;2022-10-04T10:37:27;7.03;;;3.05;;
34497;SDS011;20744;50.938;7.286;2022-10-04T10:40:21;7.65;;;2.92;;
34497;SDS011;20744;50.938;7.286;2022-10-04T10:45:41;6.60;;;2.63;;
34497;SDS011;20744;50.938;7.286;2022-10-04T10:48:13;10.60;;;3.45;;
34497;SDS011;20744;50.938;7.286;2022-10-04T10:50:51;7.30;;;2.80;;
34497;SDS011;20744;50.938;7.286;2022-10-04T10:53:41;7.57;;;2.65;;
34497;SDS011;20744;50.938;7.286;2022-10-04T10:59:10;10.18;;;3.17;;
34497;SDS011;20744;50.938;7.286;2022-10-04T11:02:06;12.55;;;3.50;;
34497;SDS011;20744;50.938;7.286;2022-10-04T11:04:46;5.85;;;2.83;;
34497;SDS011;20744;50.938;7.286;2022-10-04T11:13:04;7.13;;;2.88;;
34497;SDS011;20744;50.938;7.286;2022-10-04T11:15:55;9.10;;;2.75;;
34497;SDS011;20744;50.938;7.286;2022-10-04T11:18:36;8.25;;;2.50;;
34497;SDS011;20744;50.938;7.286;2022-10-04T11:21:21;11.80;;;2.70;;
34497;SDS011;20744;50.938;7.286;2022-10-04T11:24:00;6.07;;;2.60;;
34497;SDS011;20744;50.938;7.286;2022-10-04T11:29:44;6.63;;;2.58;;
34497;SDS011;20744;50.938;7.286;2022-10-04T11:32:26;5.50;;;2.05;;
34497;SDS011;20744;50.938;7.286;2022-10-04T11:35:25;6.78;;;2.17;;
34497;SDS011;20744;50.938;7.286;2022-10-04T11:38:00;7.35;;;2.72;;
34497;SDS011;20744;50.938;7.286;2022-10-04T11:40:35;4.93;;;2.17;;
34497;SDS011;20744;50.938;7.286;2022-10-04T11:43:14;5.85;;;2.35;;
34497;SDS011;20744;50.938;7.286;2022-10-04T11:48:40;8.18;;;2.30;;
34497;SDS011;20744;50.938;7.286;2022-10-04T11:56:50;11.95;;;2.38;;
34497;SDS011;20744;50.938;7.286;2022-10-04T11:59:23;7.93;;;2.40;;
34497;SDS011;20744;50.938;7.286;2022-10-04T12:04:32;4.55;;;2.15;;
34497;SDS011;20744;50.938;7.286;2022-10-04T12:07:06;6.53;;;2.17;;
34497;SDS011;20744;50.938;7.286;2022-10-04T12:09:38;7.43;;;2.57;;
34497;SDS011;20744;50.938;7.286;2022-10-04T12:12:22;6.40;;;2.13;;
34497;SDS011;20744;50.938;7.286;2022-10-04T12:15:11;7.18;;;1.95;;
34497;SDS011;20744;50.938;7.286;2022-10-04T12:21:08;8.38;;;2.10;;
34497;SDS011;20744;50.938;7.286;2022-10-04T12:29:35;4.78;;;1.85;;
34497;SDS011;20744;50.938;7.286;2022-10-04T12:32:07;4.93;;;1.98;;
34497;SDS011;20744;50.938;7.286;2022-10-04T12:34:39;6.85;;;2.03;;
34497;SDS011;20744;50.938;7.286;2022-10-04T12:37:13;4.47;;;1.80;;
34497;SDS011;20744;50.938;7.286;2022-10-04T12:39:49;6.95;;;2.20;;
34497;SDS011;20744;50.938;7.286;2022-10-04T12:42:22;6.90;;;1.95;;
34497;SDS011;20744;50.938;7.286;2022-10-04T12:44:59;4.95;;;1.92;;
34497;SDS011;20744;50.938;7.286;2022-10-04T12:50:16;7.28;;;1.75;;
34497;SDS011;20744;50.938;7.286;2022-10-04T12:52:52;6.53;;;1.85;;
34497;SDS011;20744;50.938;7.286;2022-10-04T12:55:37;5.80;;;1.83;;
34497;SDS011;20744;50.938;7.286;2022-10-04T12:58:09;4.95;;;1.92;;
34497;SDS011;20744;50.938;7.286;2022-10-04T13:00:43;6.15;;;1.95;;
34497;SDS011;20744;50.938;7.286;2022-10-04T13:03:16;5.10;;;2.03;;
34497;SDS011;20744;50.938;7.286;2022-10-04T13:05:48;5.15;;;2.00;;
34497;SDS011;20744;50.938;7.286;2022-10-04T13:08:21;3.28;;;1.50;;
34497;SDS011;20744;50.938;7.286;2022-10-04T13:10:54;5.97;;;1.80;;
34497;SDS011;20744;50.938;7.286;2022-10-04T13:13:36;7.25;;;2.13;;
34497;SDS011;20744;50.938;7.286;2022-10-04T13:16:10;4.22;;;1.63;;
34497;SDS011;20744;50.938;7.286;2022-10-04T13:18:41;7.95;;;1.65;;
34497;SDS011;20744;50.938;7.286;2022-10-04T13:21:13;5.70;;;1.63;;
34497;SDS011;20744;50.938;7.286;2022-10-04T13:23:49;5.47;;;2.10;;
34497;SDS011;20744;50.938;7.286;2022-10-04T13:26:22;5.28;;;1.90;;
34497;SDS011;20744;50.938;7.286;2022-10-04T13:28:55;3.97;;;1.80;;
34497;SDS011;20744;50.938;7.286;2022-10-04T13:31:28;7.07;;;1.90;;
34497;SDS011;20744;50.938;7.286;2022-10-04T13:34:00;5.35;;;1.77;;
34497;SDS011;20744;50.938;7.286;2022-10-04T13:36:41;4.70;;;1.63;;
34497;SDS011;20744;50.938;7.286;2022-10-04T13:39:18;4.90;;;1.85;;
34497;SDS011;20744;50.938;7.286;2022-10-04T13:42:01;6.07;;;1.98;;
34497;SDS011;20744;50.938;7.286;2022-10-04T13:47:36;5.50;;;1.60;;
34497;SDS011;20744;50.938;7.286;2022-10-04T13:50:14;5.78;;;2.08;;
34497;SDS011;20744;50.938;7.286;2022-10-04T13:52:50;6.68;;;2.00;;
34497;SDS011;20744;50.938;7.286;2022-10-04T13:55:43;5.35;;;2.38;;
34497;SDS011;20744;50.938;7.286;2022-10-04T13:58:32;5.55;;;1.70;;
34497;SDS011;20744;50.938;7.286;2022-10-04T14:01:11;6.50;;;2.35;;
34497;SDS011;20744;50.938;7.286;2022-10-04T14:03:44;5.93;;;2.20;;
34497;SDS011;20744;50.938;7.286;2022-10-04T14:09:00;6.35;;;2.00;;
34497;SDS011;20744;50.938;7.286;2022-10-04T14:11:47;5.25;;;2.10;;
34497;SDS011;20744;50.938;7.286;2022-10-04T14:14:28;6.18;;;1.92;;
34497;SDS011;20744;50.938;7.286;2022-10-04T14:17:09;6.07;;;1.75;;
34497;SDS011;20744;50.938;7.286;2022-10-04T14:19:51;6.13;;;2.15;;
34497;SDS011;20744;50.938;7.286;2022-10-04T14:22:33;4.38;;;1.85;;
34497;SDS011;20744;50.938;7.286;2022-10-04T14:30:40;5.57;;;2.10;;
34497;SDS011;20744;50.938;7.286;2022-10-04T14:33:24;8.02;;;2.10;;
34497;SDS011;20744;50.938;7.286;2022-10-04T14:36:01;7.90;;;2.08;;
34497;SDS011;20744;50.938;7.286;2022-10-04T14:41:43;4.47;;;2.08;;
34497;SDS011;20744;50.938;7.286;2022-10-04T14:47:03;7.45;;;2.30;;
34497;SDS011;20744;50.938;7.286;2022-10-04T14:49:41;4.95;;;2.00;;
34497;SDS011;20744;50.938;7.286;2022-10-04T14:52:15;5.82;;;2.13;;
34497;SDS011;20744;50.938;7.286;2022-10-04T14:54:49;6.57;;;2.30;;
34497;SDS011;20744;50.938;7.286;2022-10-04T14:57:19;5.38;;;2.38;;
34497;SDS011;20744;50.938;7.286;2022-10-04T15:00:03;6.47;;;1.80;;
34497;SDS011;20744;50.938;7.286;2022-10-04T15:08:39;4.47;;;2.33;;
34497;SDS011;20744;50.938;7.286;2022-10-04T15:11:11;9.15;;;2.47;;
34497;SDS011;20744;50.938;7.286;2022-10-04T15:13:40;8.77;;;2.25;;
34497;SDS011;20744;50.938;7.286;2022-10-04T15:16:17;6.28;;;1.80;;
34497;SDS011;20744;50.938;7.286;2022-10-04T15:18:49;7.38;;;2.33;;
34497;SDS011;20744;50.938;7.286;2022-10-04T15:24:12;6.13;;;1.80;;
34497;SDS011;20744;50.938;7.286;2022-10-04T15:26:53;5.90;;;1.70;;
34497;SDS011;20744;50.938;7.286;2022-10-04T15:29:26;5.45;;;1.80;;
34497;SDS011;20744;50.938;7.286;2022-10-04T15:31:59;3.85;;;2.05;;
34497;SDS011;20744;50.938;7.286;2022-10-04T15:34:32;4.72;;;1.80;;
34497;SDS011;20744;50.938;7.286;2022-10-04T15:37:06;5.10;;;2.13;;
34497;SDS011;20744;50.938;7.286;2022-10-04T15:39:48;5.47;;;1.90;;
34497;SDS011;20744;50.938;7.286;2022-10-04T15:42:22;5.03;;;2.00;;
34497;SDS011;20744;50.938;7.286;2022-10-04T15:47:48;4.63;;;2.00;;
34497;SDS011;20744;50.938;7.286;2022-10-04T15:50:22;7.55;;;2.30;;
34497;SDS011;20744;50.938;7.286;2022-10-04T15:52:52;8.45;;;2.42;;
34497;SDS011;20744;50.938;7.286;2022-10-04T15:55:30;8.90;;;2.40;;
34497;SDS011;20744;50.938;7.286;2022-10-04T16:00:59;7.50;;;2.92;;
34497;SDS011;20744;50.938;7.286;2022-10-04T16:03:32;7.47;;;2.75;;
34497;SDS011;20744;50.938;7.286;2022-10-04T16:06:03;7.90;;;2.90;;
34497;SDS011;20744;50.938;7.286;2022-10-04T16:08:46;7.40;;;2.63;;
34497;SDS011;20744;50.938;7.286;2022-10-04T16:14:12;4.57;;;2.20;;
34497;SDS011;20744;50.938;7.286;2022-10-04T16:16:51;4.65;;;2.20;;
34497;SDS011;20744;50.938;7.286;2022-10-04T16:19:26;7.85;;;2.13;;
34497;SDS011;20744;50.938;7.286;2022-10-04T16:22:07;10.30;;;2.35;;
34497;SDS011;20744;50.938;7.286;2022-10-04T16:24:41;4.68;;;2.33;;
34497;SDS011;20744;50.938;7.286;2022-10-04T16:29:55;4.75;;;2.05;;
34497;SDS011;20744;50.938;7.286;2022-10-04T16:32:24;5.22;;;2.70;;
34497;SDS011;20744;50.938;7.286;2022-10-04T16:34:54;6.63;;;2.50;;
34497;SDS011;20744;50.938;7.286;2022-10-04T16:37:28;7.15;;;2.40;;
34497;SDS011;20744;50.938;7.286;2022-10-04T16:39:57;5.25;;;2.47;;
34497;SDS011;20744;50.938;7.286;2022-10-04T16:42:27;6.95;;;2.70;;
34497;SDS011;20744;50.938;7.286;2022-10-04T16:45:23;3.55;;;2.30;;
34497;SDS011;20744;50.938;7.286;2022-10-04T16:47:49;7.68;;;2.83;;
34497;SDS011;20744;50.938;7.286;2022-10-04T16:53:14;6.00;;;2.40;;
34497;SDS011;20744;50.938;7.286;2022-10-04T16:55:48;6.13;;;2.55;;
34497;SDS011;20744;50.938;7.286;2022-10-04T16:58:34;6.57;;;2.47;;
34497;SDS011;20744;50.938;7.286;2022-10-04T17:01:24;6.25;;;2.22;;
34497;SDS011;20744;50.938;7.286;2022-10-04T17:03:57;6.30;;;2.63;;
34497;SDS011;20744;50.938;7.286;2022-10-04T17:06:27;9.27;;;2.63;;
34497;SDS011;20744;50.938;7.286;2022-10-04T17:09:06;7.05;;;2.78;;
34497;SDS011;20744;50.938;7.286;2022-10-04T17:11:47;6.95;;;2.75;;
34497;SDS011;20744;50.938;7.286;2022-10-04T17:16:52;7.72;;;3.75;;
34497;SDS011;20744;50.938;7.286;2022-10-04T17:19:26;5.95;;;2.90;;
34497;SDS011;20744;50.938;7.286;2022-10-04T17:21:57;9.25;;;4.72;;
34497;SDS011;20744;50.938;7.286;2022-10-04T17:24:30;17.65;;;12.38;;
34497;SDS011;20744;50.938;7.286;2022-10-04T17:27:02;10.13;;;5.68;;
34497;SDS011;20744;50.938;7.286;2022-10-04T17:29:41;12.00;;;6.22;;
34497;SDS011;20744;50.938;7.286;2022-10-04T17:32:13;9.32;;;7.20;;
34497;SDS011;20744;50.938;7.286;2022-10-04T17:34:52;16.63;;;13.80;;